Time;durP1;ratioP1;P1;durP2;ratioP2;P2;SDS_P1;SDS_P2;PMS_P1;PMS_P2;Temp;Humidity;BMP_temperature;BMP_pressure;BME280_temperature;BME280_humidity;BME280_pressure;Samples;Min_cycle;Max_cycle;Signal;HPM_P1;HPM_P2
2023/12/22 00:02:20;;;;;;;6.37;2.10;;;;;;;5.40;84.22;99768.72;5074520;28;20185;-75
2023/12/22 00:04:46;;;;;;;6.17;2.17;;;;;;;5.42;84.31;99774.72;5074965;28;20210;-76
2023/12/22 00:07:13;;;;;;;5.77;1.70;;;;;;;5.38;84.67;99765.41;5074422;28;20600;-76
2023/12/22 00:09:39;;;;;;;5.50;1.77;;;;;;;5.33;85.16;99772.94;5074687;28;20202;-75
2023/12/22 00:12:06;;;;;;;2.97;1.83;;;;;;;5.31;85.62;99770.41;5074363;28;20190;-76
2023/12/22 00:14:32;;;;;;;5.10;2.23;;;;;;;5.30;85.51;99775.88;5074815;28;20591;-76
2023/12/22 00:16:59;;;;;;;8.40;1.80;;;;;;;5.22;86.84;99773.91;5074149;28;20195;-76
2023/12/22 00:19:25;;;;;;;8.80;2.03;;;;;;;5.26;86.42;99774.47;5073153;28;20203;-75
2023/12/22 00:21:52;;;;;;;9.20;2.30;;;;;;;5.23;86.80;99780.03;5074403;28;20195;-75
2023/12/22 00:24:18;;;;;;;3.50;1.63;;;;;;;5.23;87.42;99796.78;5074597;28;20210;-75
2023/12/22 00:26:45;;;;;;;7.87;2.40;;;;;;;5.25;87.15;99783.41;5074835;28;20183;-75
2023/12/22 00:29:12;;;;;;;4.57;2.17;;;;;;;5.31;87.44;99799.56;5074242;28;20230;-75
2023/12/22 00:31:38;;;;;;;11.83;2.30;;;;;;;5.31;87.70;99799.56;5074282;28;20539;-75
2023/12/22 00:34:05;;;;;;;10.23;2.80;;;;;;;5.35;87.43;99813.38;5074478;28;20258;-76
2023/12/22 00:36:31;;;;;;;7.53;1.87;;;;;;;5.34;87.77;99814.38;5073925;28;20197;-76
2023/12/22 00:38:58;;;;;;;3.93;2.17;;;;;;;5.35;88.61;99823.97;5073800;28;20207;-75
2023/12/22 00:41:24;;;;;;;7.43;2.23;;;;;;;5.39;87.96;99820.06;5074082;28;20574;-75
2023/12/22 00:43:51;;;;;;;2.23;1.57;;;;;;;5.34;88.11;99824.97;5073973;28;20216;-75
2023/12/22 00:46:17;;;;;;;7.97;1.70;;;;;;;5.34;88.18;99820.50;5073722;28;20206;-75
2023/12/22 00:48:44;;;;;;;3.80;2.50;;;;;;;5.34;88.06;99817.84;5073601;28;20673;-75
2023/12/22 00:51:10;;;;;;;11.73;2.77;;;;;;;5.38;88.04;99823.69;5073573;28;20190;-75
2023/12/22 00:53:36;;;;;;;6.33;2.53;;;;;;;5.37;88.03;99816.72;5073237;28;20189;-76
2023/12/22 00:56:03;;;;;;;3.90;1.90;;;;;;;5.40;88.30;99822.56;5074108;28;20194;-76
2023/12/22 00:58:30;;;;;;;8.17;1.90;;;;;;;5.42;88.13;99815.34;5073843;28;20187;-75
2023/12/22 01:00:56;;;;;;;8.50;2.50;;;;;;;5.45;88.09;99809.75;5073386;28;20204;-75
2023/12/22 01:03:23;;;;;;;4.53;2.70;;;;;;;5.47;88.33;99804.31;5073471;28;20596;-75
2023/12/22 01:05:49;;;;;;;5.87;2.20;;;;;;;5.50;87.87;99815.47;5073387;28;20206;-75
2023/12/22 01:08:16;;;;;;;5.23;2.07;;;;;;;5.56;87.98;99814.03;5073445;28;20600;-75
2023/12/22 01:10:42;;;;;;;2.87;2.13;;;;;;;5.59;87.76;99818.25;5073329;28;20247;-76
2023/12/22 01:13:09;;;;;;;4.40;2.30;;;;;;;5.57;88.36;99834.28;5073334;28;20188;-75
2023/12/22 01:15:35;;;;;;;4.90;1.87;;;;;;;5.67;87.90;99813.91;5073831;28;20176;-75
2023/12/22 01:18:02;;;;;;;8.30;2.40;;;;;;;5.73;88.05;99823.09;5073351;28;20730;-75
2023/12/22 01:20:29;;;;;;;9.67;2.77;;;;;;;5.69;88.68;99819.03;5073185;28;20210;-75
2023/12/22 01:22:55;;;;;;;8.70;2.23;;;;;;;5.71;88.72;99815.28;5073236;28;20182;-75
2023/12/22 01:25:22;;;;;;;24.97;3.53;;;;;;;5.77;88.75;99811.22;5073116;28;20209;-75
2023/12/22 01:27:50;;;;;;;9.20;2.53;;;;;;;5.75;88.75;99805.22;5073185;28;20192;-75
2023/12/22 01:30:16;;;;;;;5.30;2.10;;;;;;;5.74;87.54;99812.34;5073228;28;20263;-75
2023/12/22 01:32:43;;;;;;;7.67;2.77;;;;;;;5.85;86.62;99809.53;5073110;28;20555;-75
2023/12/22 01:35:09;;;;;;;5.13;1.87;;;;;;;5.91;84.51;99802.81;5073087;28;20190;-75
2023/12/22 01:37:37;;;;;;;9.33;1.60;;;;;;;5.96;81.02;99813.84;5073068;28;20659;-75
2023/12/22 01:40:05;;;;;;;4.07;2.57;;;;;;;6.00;79.99;99812.56;5073202;28;20203;-75
2023/12/22 01:42:31;;;;;;;9.13;1.50;;;;;;;5.98;80.23;99841.88;5073016;28;20662;-75
2023/12/22 01:44:57;;;;;;;5.23;1.70;;;;;;;5.94;80.21;99847.66;5073172;28;20260;-75
2023/12/22 01:47:24;;;;;;;3.50;1.87;;;;;;;5.88;78.75;99872.09;5073551;28;20179;-75
2023/12/22 01:49:52;;;;;;;5.43;2.00;;;;;;;5.81;78.67;99871.78;5073148;28;20244;-75
2023/12/22 01:52:18;;;;;;;3.13;2.00;;;;;;;5.76;78.95;99899.72;5072918;28;20188;-75
2023/12/22 01:54:45;;;;;;;3.50;1.47;;;;;;;5.62;79.21;99852.41;5072880;28;20189;-75
2023/12/22 01:57:17;;;;;;;1.40;1.40;;;;;;;5.47;80.53;99857.31;5072909;28;20239;-75
2023/12/22 01:59:45;;;;;;;2.00;1.70;;;;;;;5.39;82.03;99865.09;5073068;28;20269;-75
2023/12/22 02:02:11;;;;;;;4.40;1.37;;;;;;;5.30;82.37;99865.97;5072852;28;20593;-75
2023/12/22 02:04:39;;;;;;;1.47;1.47;;;;;;;5.26;82.83;99852.13;5076480;28;20539;-75
2023/12/22 02:07:08;;;;;;;4.03;1.47;;;;;;;5.26;82.63;99861.94;5076744;28;20256;-75
2023/12/22 02:09:35;;;;;;;5.57;1.70;;;;;;;5.26;83.55;99862.75;5076897;28;20218;-75
2023/12/22 02:12:02;;;;;;;1.77;1.70;;;;;;;5.25;83.35;99874.34;5076939;28;20240;-75
2023/12/22 02:14:29;;;;;;;4.53;1.30;;;;;;;5.27;83.31;99871.53;5076590;28;20233;-75
2023/12/22 02:17:22;;;;;;;2.83;1.80;;;;;;;5.28;83.60;99857.31;5076701;28;20186;-75
2023/12/22 02:19:48;;;;;;;1.63;1.63;;;;;;;5.27;83.92;99872.38;5076426;28;20239;-75
2023/12/22 02:22:15;;;;;;;5.10;1.63;;;;;;;5.27;84.43;99875.00;5076726;28;20621;-75
2023/12/22 02:24:42;;;;;;;9.30;1.47;;;;;;;5.31;84.15;99870.28;5076334;28;20203;-75
2023/12/22 02:27:13;;;;;;;1.80;1.30;;;;;;;5.36;83.40;99878.66;5076391;28;20187;-75
2023/12/22 02:29:54;;;;;;;3.90;1.93;;;;;;;5.39;84.03;99875.72;5076729;28;20608;-75
2023/12/22 02:32:24;;;;;;;6.30;2.33;;;;;;;5.39;83.99;99884.50;5076306;28;20180;-75
2023/12/22 02:34:54;;;;;;;8.57;1.30;;;;;;;5.42;84.16;99880.75;5076555;28;20217;-75
2023/12/22 02:37:23;;;;;;;0.93;0.93;;;;;;;5.32;83.85;99872.78;5076205;28;20701;-75
2023/12/22 02:39:52;;;;;;;3.63;1.33;;;;;;;5.26;84.38;99868.03;5076056;28;20229;-75
2023/12/22 02:42:19;;;;;;;6.37;1.10;;;;;;;5.34;84.19;99856.75;5076119;28;20182;-75
2023/12/22 02:44:46;;;;;;;3.53;1.37;;;;;;;5.32;85.08;99862.19;5076236;28;20209;-75
2023/12/22 02:47:12;;;;;;;2.03;1.20;;;;;;;5.33;84.87;99870.97;5076010;28;20239;-75
2023/12/22 02:49:39;;;;;;;3.80;1.57;;;;;;;5.32;84.88;99864.00;5075919;28;20690;-75
2023/12/22 02:52:05;;;;;;;4.17;1.40;;;;;;;5.30;84.91;99858.03;5075963;28;20198;-75
2023/12/22 02:54:33;;;;;;;5.93;1.63;;;;;;;5.23;84.94;99852.44;5075876;28;20187;-75
2023/12/22 02:57:00;;;;;;;8.37;2.03;;;;;;;5.22;85.11;99848.09;5076118;28;20236;-75
2023/12/22 02:59:28;;;;;;;10.23;2.03;;;;;;;5.26;85.34;99862.75;5076245;28;20208;-75
2023/12/22 03:01:55;;;;;;;3.20;1.83;;;;;;;5.32;84.89;99862.19;5075996;28;20191;-75
2023/12/22 03:04:21;;;;;;;7.23;2.50;;;;;;;5.37;85.11;99865.28;5075634;28;20195;-75
2023/12/22 03:06:48;;;;;;;5.47;2.00;;;;;;;5.39;84.79;99865.09;5075929;28;20546;-75
2023/12/22 03:09:14;;;;;;;6.07;2.07;;;;;;;5.41;85.27;99864.00;5075538;28;20218;-75
2023/12/22 03:11:41;;;;;;;7.03;1.60;;;;;;;5.49;84.99;99858.00;5075615;28;20600;-75
2023/12/22 03:14:08;;;;;;;3.20;1.57;;;;;;;5.51;84.84;99871.97;5075299;28;20183;-75
2023/12/22 03:16:35;;;;;;;1.77;1.67;;;;;;;5.56;84.88;99888.25;5074928;28;20240;-75
2023/12/22 03:19:01;;;;;;;4.47;2.20;;;;;;;5.60;84.44;99879.06;5075265;28;20221;-75
2023/12/22 03:21:28;;;;;;;6.47;2.27;;;;;;;5.63;84.59;99888.56;5075595;28;20188;-75
2023/12/22 03:23:54;;;;;;;7.30;2.43;;;;;;;5.66;84.58;99872.34;5075594;28;20205;-75
2023/12/22 03:26:21;;;;;;;5.20;2.27;;;;;;;5.63;85.22;99870.00;5075285;28;20598;-75
2023/12/22 03:28:47;;;;;;;3.83;2.00;;;;;;;5.64;85.63;99874.34;5075168;28;20615;-75
2023/12/22 03:31:13;;;;;;;4.30;2.70;;;;;;;5.60;85.76;99875.59;5075516;28;20190;-75
2023/12/22 03:33:40;;;;;;;5.30;1.73;;;;;;;5.60;85.54;99873.75;5075154;28;20190;-75
2023/12/22 03:36:07;;;;;;;5.20;2.27;;;;;;;5.63;85.44;99868.19;5075147;28;20292;-76
2023/12/22 03:38:33;;;;;;;4.30;2.00;;;;;;;5.58;86.00;99872.22;5075036;28;20233;-74
2023/12/22 03:40:59;;;;;;;7.30;2.23;;;;;;;5.61;85.95;99861.34;5075293;28;20235;-75
2023/12/22 03:43:26;;;;;;;2.93;1.90;;;;;;;5.59;86.30;99884.50;5073704;28;20201;-75
2023/12/22 03:45:53;;;;;;;6.70;2.70;;;;;;;5.57;86.60;99875.84;5074828;28;20698;-75
2023/12/22 03:48:19;;;;;;;9.23;2.40;;;;;;;5.59;86.92;99861.50;5074930;28;20232;-75
2023/12/22 03:50:46;;;;;;;4.40;3.03;;;;;;;5.62;86.69;99877.13;5074721;28;20309;-75
2023/12/22 03:53:12;;;;;;;15.67;2.93;;;;;;;5.62;87.22;99874.47;5074780;28;20189;-75
2023/12/22 03:55:39;;;;;;;10.20;2.00;;;;;;;5.59;86.71;99869.44;5074674;28;20224;-75
2023/12/22 03:58:07;;;;;;;12.30;2.83;;;;;;;5.64;86.44;99864.56;5074689;28;20685;-75
2023/12/22 04:00:34;;;;;;;12.30;2.73;;;;;;;5.70;85.97;99876.41;5074579;28;20269;-75
2023/12/22 04:03:00;;;;;;;13.10;3.27;;;;;;;5.68;86.48;99871.25;5074561;28;20192;-75
2023/12/22 04:05:27;;;;;;;11.27;2.40;;;;;;;5.70;86.89;99905.56;5074686;28;20203;-75
2023/12/22 04:07:54;;;;;;;12.30;2.37;;;;;;;5.68;87.50;99904.88;5074831;28;20654;-75
2023/12/22 04:10:20;;;;;;;6.10;3.07;;;;;;;5.63;88.73;99921.22;5074418;28;20206;-75
2023/12/22 04:12:47;;;;;;;8.13;2.47;;;;;;;5.59;89.57;99948.16;5074354;28;20687;-75
2023/12/22 04:15:14;;;;;;;10.70;2.77;;;;;;;5.50;90.42;99963.06;5074640;28;20185;-75
2023/12/22 04:17:40;;;;;;;2.87;1.77;;;;;;;5.29;89.39;99946.44;5073345;28;20193;-77
2023/12/22 04:20:07;;;;;;;8.50;1.97;;;;;;;5.00;90.33;99949.03;5074281;28;20274;-77
2023/12/22 04:22:34;;;;;;;3.30;1.27;;;;;;;4.83;89.04;99905.50;5074297;28;20184;-77
2023/12/22 04:25:00;;;;;;;4.43;1.77;;;;;;;4.76;89.38;99893.75;5074330;28;20294;-76
2023/12/22 04:27:27;;;;;;;1.40;1.33;;;;;;;4.75;89.36;99910.63;5074159;28;20685;-76
2023/12/22 04:29:53;;;;;;;2.63;1.23;;;;;;;4.71;90.60;99927.72;5073969;28;20623;-76
2023/12/22 04:32:20;;;;;;;2.07;1.97;;;;;;;4.66;91.72;99908.78;5074239;28;20186;-77
2023/12/22 04:34:46;;;;;;;4.63;1.50;;;;;;;4.57;92.17;99905.13;5074258;28;20190;-77
2023/12/22 04:37:12;;;;;;;3.77;1.57;;;;;;;4.54;92.50;99909.84;5074481;28;20175;-76
2023/12/22 04:39:40;;;;;;;1.53;1.10;;;;;;;4.54;92.69;99942.44;5073790;28;20257;-77
2023/12/22 04:42:06;;;;;;;5.03;1.67;;;;;;;4.55;92.83;99943.28;5073817;28;20209;-76
2023/12/22 04:44:33;;;;;;;4.40;1.57;;;;;;;4.55;92.80;99949.41;5074036;28;20223;-77
2023/12/22 04:46:59;;;;;;;2.80;1.30;;;;;;;4.54;93.72;99953.00;5073954;28;20210;-77
2023/12/22 04:49:25;;;;;;;6.33;1.50;;;;;;;4.53;93.16;99937.28;5073610;28;20697;-76
2023/12/22 04:51:52;;;;;;;3.10;1.77;;;;;;;4.54;93.08;99931.03;5073918;28;20241;-76
2023/12/22 04:54:18;;;;;;;4.97;2.40;;;;;;;4.53;93.39;99930.19;5073885;28;20650;-76
2023/12/22 04:56:45;;;;;;;2.83;1.70;;;;;;;4.48;93.23;99921.81;5073817;28;20191;-76
2023/12/22 04:59:11;;;;;;;4.63;1.37;;;;;;;4.49;93.64;99930.59;5073694;28;20211;-76
2023/12/22 05:01:38;;;;;;;6.63;1.90;;;;;;;4.53;93.39;99897.59;5073749;28;20183;-76
2023/12/22 05:04:04;;;;;;;3.20;1.87;;;;;;;4.53;93.17;99906.38;5074054;28;20190;-76
2023/12/22 05:06:34;;;;;;;3.83;1.50;;;;;;;4.53;92.74;99916.97;5074001;28;20265;-76
2023/12/22 05:09:00;;;;;;;2.43;1.93;;;;;;;4.54;92.62;99913.31;5073362;28;20206;-76
2023/12/22 05:11:26;;;;;;;1.93;1.83;;;;;;;4.55;92.50;99930.03;5073903;28;20182;-76
2023/12/22 05:13:53;;;;;;;3.00;2.30;;;;;;;4.58;92.44;99935.91;5073333;28;20191;-76
2023/12/22 05:16:19;;;;;;;5.40;2.60;;;;;;;4.64;92.59;99934.53;5073796;28;20182;-76
2023/12/22 05:18:46;;;;;;;2.37;2.17;;;;;;;4.64;92.26;99925.75;5073195;28;20220;-76
2023/12/22 05:21:14;;;;;;;1.40;1.30;;;;;;;4.69;92.50;99920.91;5074040;28;20186;-76
2023/12/22 05:23:41;;;;;;;4.50;2.13;;;;;;;4.70;92.17;99934.03;5073525;28;20526;-76
2023/12/22 05:26:08;;;;;;;1.63;1.50;;;;;;;4.72;91.86;99945.28;5073097;28;20207;-76
2023/12/22 05:28:35;;;;;;;5.77;1.90;;;;;;;4.72;91.52;99947.09;5073079;28;20187;-75
2023/12/22 05:31:01;;;;;;;2.23;2.03;;;;;;;4.78;90.91;99955.38;5073702;28;20191;-76
2023/12/22 05:33:27;;;;;;;3.70;1.70;;;;;;;4.80;90.81;99944.63;5073347;28;20194;-76
2023/12/22 05:35:54;;;;;;;2.67;2.03;;;;;;;4.79;90.63;99957.06;5073367;28;20195;-76
2023/12/22 05:38:20;;;;;;;6.63;1.70;;;;;;;4.80;91.46;99957.84;5073246;28;20188;-76
2023/12/22 05:40:48;;;;;;;3.10;2.10;;;;;;;4.70;91.19;99951.72;5073523;28;20202;-76
2023/12/22 05:43:14;;;;;;;3.03;2.00;;;;;;;4.82;91.23;99953.28;5073051;28;20214;-76
2023/12/22 05:45:41;;;;;;;3.17;2.10;;;;;;;4.83;91.63;99958.47;5072914;28;20211;-76
2023/12/22 05:48:08;;;;;;;9.33;2.47;;;;;;;4.87;91.53;99973.09;5072954;28;20659;-76
2023/12/22 05:50:34;;;;;;;1.80;1.30;;;;;;;4.93;90.87;99971.72;5073435;28;20317;-76
2023/12/22 05:53:01;;;;;;;5.03;1.77;;;;;;;4.94;91.49;99976.03;5073230;28;20183;-76
2023/12/22 05:55:27;;;;;;;2.80;2.57;;;;;;;4.95;91.77;99977.72;5072910;28;20211;-76
2023/12/22 05:57:55;;;;;;;3.10;1.83;;;;;;;4.97;91.59;99996.94;5072860;28;20539;-76
2023/12/22 06:00:22;;;;;;;4.37;1.93;;;;;;;4.91;91.86;100008.09;5073088;28;20206;-76
2023/12/22 06:02:48;;;;;;;7.70;2.03;;;;;;;5.02;91.76;99992.09;5073105;28;20183;-76
2023/12/22 06:05:15;;;;;;;2.93;2.47;;;;;;;5.04;91.82;99972.47;5071880;28;20187;-76
2023/12/22 06:07:41;;;;;;;7.37;2.40;;;;;;;5.07;92.08;99974.00;5073106;28;20178;-76
2023/12/22 06:10:09;;;;;;;7.67;2.57;;;;;;;5.09;92.28;99968.56;5072747;28;20238;-76
2023/12/22 06:12:36;;;;;;;7.40;3.13;;;;;;;5.05;92.15;99968.81;5073028;28;20189;-76
2023/12/22 06:15:03;;;;;;;16.97;3.70;;;;;;;5.08;92.06;99965.09;5072812;28;20655;-76
2023/12/22 06:17:29;;;;;;;9.33;3.20;;;;;;;5.09;92.13;99968.56;5072535;28;20248;-76
2023/12/22 06:19:56;;;;;;;11.40;2.80;;;;;;;5.09;92.30;99968.56;5072602;28;20297;-75
2023/12/22 06:22:23;;;;;;;16.00;2.80;;;;;;;5.04;92.44;99958.38;5073172;28;20270;-76
2023/12/22 06:24:49;;;;;;;15.53;2.73;;;;;;;5.04;93.04;99953.94;5072597;28;20182;-76
2023/12/22 06:27:16;;;;;;;5.23;2.40;;;;;;;5.09;92.67;99958.81;5072542;28;20209;-76
2023/12/22 06:29:43;;;;;;;10.30;2.53;;;;;;;5.04;92.88;99967.16;5072516;28;20211;-75
2023/12/22 06:32:10;;;;;;;3.50;1.87;;;;;;;5.00;93.00;99964.94;5072607;28;20600;-75
2023/12/22 06:34:36;;;;;;;17.67;3.03;;;;;;;5.05;93.04;99979.41;5072522;28;20199;-75
2023/12/22 06:37:03;;;;;;;8.63;2.57;;;;;;;5.05;92.97;99983.88;5072507;28;20713;-75
2023/12/22 06:39:29;;;;;;;3.67;2.37;;;;;;;5.06;92.50;99964.38;5072460;28;20211;-75
2023/12/22 06:41:56;;;;;;;7.70;1.67;;;;;;;5.02;93.17;99966.44;5072734;28;20677;-75
2023/12/22 06:44:22;;;;;;;11.70;2.67;;;;;;;5.03;92.85;99964.66;5072977;28;20188;-75
2023/12/22 06:46:48;;;;;;;10.00;2.20;;;;;;;5.03;92.83;99959.34;5072373;28;20206;-75
2023/12/22 06:49:15;;;;;;;12.30;2.00;;;;;;;5.09;92.64;99968.56;5072273;28;20289;-76
2023/12/22 06:51:41;;;;;;;3.83;2.60;;;;;;;5.14;92.55;99985.72;5075819;28;20297;-76
2023/12/22 06:54:08;;;;;;;8.10;2.50;;;;;;;5.13;92.83;99981.41;5075803;28;20188;-76
2023/12/22 06:56:39;;;;;;;2.40;2.27;;;;;;;5.15;92.86;99957.41;5076690;28;20611;-76
2023/12/22 06:59:06;;;;;;;6.27;2.50;;;;;;;5.20;92.65;99958.69;5076539;28;20211;-75
2023/12/22 07:01:34;;;;;;;8.47;2.53;;;;;;;5.23;92.63;99947.81;5076341;28;20186;-76
2023/12/22 07:04:03;;;;;;;7.37;2.50;;;;;;;5.24;92.64;99949.50;5075726;28;20234;-76
2023/12/22 07:06:32;;;;;;;2.53;2.17;;;;;;;5.22;92.81;99955.91;5075652;28;20213;-76
2023/12/22 07:09:14;;;;;;;11.97;2.80;;;;;;;5.19;93.06;99953.53;5075556;28;20216;-76
2023/12/22 07:11:51;;;;;;;2.90;2.20;;;;;;;5.22;93.50;99951.44;5075669;28;20167;-76
2023/12/22 07:14:17;;;;;;;4.23;2.20;;;;;;;5.18;93.04;99942.09;5075848;28;20168;-77
2023/12/22 07:16:44;;;;;;;6.40;2.47;;;;;;;5.26;93.00;99944.88;5075862;28;20215;-77
2023/12/22 07:19:12;;;;;;;9.07;2.30;;;;;;;5.24;93.06;99944.19;5074349;28;20222;-75
2023/12/22 07:21:40;;;;;;;8.43;2.93;;;;;;;5.30;92.62;99946.31;5075353;28;20556;-75
2023/12/22 07:24:08;;;;;;;8.47;2.47;;;;;;;5.22;92.31;99935.53;5075311;28;20247;-75
2023/12/22 07:26:35;;;;;;;11.13;3.10;;;;;;;5.28;92.36;99929.69;5075355;28;20213;-75
2023/12/22 07:29:03;;;;;;;7.90;2.40;;;;;;;5.29;92.37;99923.44;5075208;28;20269;-75
2023/12/22 07:31:29;;;;;;;5.50;3.20;;;;;;;5.27;92.65;99938.63;5075229;28;20187;-75
2023/12/22 07:33:56;;;;;;;4.37;2.93;;;;;;;5.43;91.55;99938.91;5075732;28;20214;-76
2023/12/22 07:36:22;;;;;;;3.70;2.57;;;;;;;5.49;91.50;99927.75;5075702;28;20171;-75
2023/12/22 07:38:49;;;;;;;12.00;3.37;;;;;;;5.64;90.64;99935.31;5075439;28;20240;-75
2023/12/22 07:41:15;;;;;;;8.23;2.67;;;;;;;5.70;90.56;99942.69;5075030;28;20260;-75
2023/12/22 07:43:43;;;;;;;5.37;2.67;;;;;;;5.80;89.76;99946.19;5074921;28;20191;-75
2023/12/22 07:46:19;;;;;;;13.83;2.90;;;;;;;5.92;89.34;99942.44;5075271;28;20199;-75
2023/12/22 07:48:46;;;;;;;3.47;3.17;;;;;;;6.00;89.37;99933.78;5075327;28;20177;-75
2023/12/22 07:51:13;;;;;;;11.23;2.33;;;;;;;6.12;87.66;99933.47;5075318;28;20679;-76
2023/12/22 07:53:40;;;;;;;17.00;3.87;;;;;;;6.19;88.45;99913.38;5074912;28;20731;-76
2023/12/22 07:56:08;;;;;;;12.63;3.30;;;;;;;6.26;88.17;99917.09;5074713;28;20187;-76
2023/12/22 07:58:34;;;;;;;7.53;3.13;;;;;;;6.28;88.00;99928.41;5074639;28;20187;-75
2023/12/22 08:01:01;;;;;;;15.77;3.10;;;;;;;6.41;87.82;99923.63;5074363;28;20244;-76
2023/12/22 08:03:28;;;;;;;4.13;3.57;;;;;;;6.52;87.07;99919.13;5074482;28;20189;-76
2023/12/22 08:05:55;;;;;;;5.07;3.27;;;;;;;6.57;87.06;99930.16;5074469;28;20213;-76
2023/12/22 08:08:22;;;;;;;16.43;3.63;;;;;;;6.67;87.15;99929.13;5074493;28;20186;-75
2023/12/22 08:10:48;;;;;;;3.67;3.47;;;;;;;6.75;86.91;99933.69;5074902;28;20236;-76
2023/12/22 08:13:16;;;;;;;10.13;3.53;;;;;;;6.79;87.18;99945.69;5074332;28;20530;-76
2023/12/22 08:15:43;;;;;;;25.30;3.70;;;;;;;6.79;87.46;99948.34;5074242;28;20183;-76
2023/12/22 08:18:10;;;;;;;14.13;3.63;;;;;;;6.84;87.80;99933.66;5074230;28;20198;-76
2023/12/22 08:20:37;;;;;;;20.07;4.23;;;;;;;6.86;87.93;99944.97;5074653;28;20229;-76
2023/12/22 08:23:08;;;;;;;13.30;3.73;;;;;;;6.94;88.83;99946.91;5074454;28;20236;-76
2023/12/22 08:25:40;;;;;;;14.90;4.07;;;;;;;7.05;88.47;99948.50;5074390;28;20218;-76
2023/12/22 08:28:07;;;;;;;11.93;4.73;;;;;;;7.05;88.65;99962.63;5073991;28;20302;-76
2023/12/22 08:30:33;;;;;;;12.17;4.60;;;;;;;7.07;88.87;99950.03;5074213;28;20689;-76
2023/12/22 08:33:00;;;;;;;11.00;5.00;;;;;;;7.15;88.78;99952.78;5073950;28;20198;-76
2023/12/22 08:35:26;;;;;;;16.20;4.93;;;;;;;7.22;89.07;99948.53;5073947;28;20183;-76
2023/12/22 08:37:53;;;;;;;23.23;5.07;;;;;;;7.21;88.95;99925.59;5074182;28;20232;-76
2023/12/22 08:40:25;;;;;;;17.03;4.10;;;;;;;7.21;89.00;99917.63;5074061;28;20297;-76
2023/12/22 08:43:02;;;;;;;18.63;4.73;;;;;;;7.24;89.03;99933.28;5074080;28;20189;-76
2023/12/22 08:45:28;;;;;;;15.70;5.20;;;;;;;7.28;88.85;99932.00;5073801;28;20170;-76
2023/12/22 08:47:56;;;;;;;16.50;4.97;;;;;;;7.32;88.72;99933.38;5073656;28;20249;-76
2023/12/22 08:50:23;;;;;;;21.07;5.57;;;;;;;7.29;88.83;99938.16;5073662;28;20206;-76
2023/12/22 08:52:49;;;;;;;27.23;5.87;;;;;;;7.38;88.50;99939.09;5073653;28;20570;-76
2023/12/22 08:55:16;;;;;;;25.47;6.47;;;;;;;7.37;88.67;99942.72;5073592;28;20654;-76
2023/12/22 08:57:42;;;;;;;25.50;5.93;;;;;;;7.42;88.37;99937.81;5073588;28;20178;-76
2023/12/22 09:00:22;;;;;;;12.43;4.57;;;;;;;7.44;88.56;99930.50;5073736;28;20210;-76
2023/12/22 09:02:48;;;;;;;31.17;5.70;;;;;;;7.47;88.90;99949.63;5073738;28;20193;-76
2023/12/22 09:05:15;;;;;;;30.63;5.57;;;;;;;7.50;88.96;99932.56;5073502;28;20187;-76
2023/12/22 09:07:42;;;;;;;30.10;6.37;;;;;;;7.59;88.14;99926.34;5073350;28;20206;-76
2023/12/22 09:10:08;;;;;;;21.90;5.93;;;;;;;7.59;88.43;99931.66;5073376;28;20210;-75
2023/12/22 09:12:35;;;;;;;40.37;6.43;;;;;;;7.63;88.25;99925.88;5072726;28;20189;-75
2023/12/22 09:15:01;;;;;;;19.17;5.97;;;;;;;7.60;88.57;99920.00;5073306;28;20643;-75
2023/12/22 09:17:28;;;;;;;14.30;5.57;;;;;;;7.58;87.97;99928.16;5073370;28;20248;-76
2023/12/22 09:19:55;;;;;;;15.30;4.63;;;;;;;7.50;87.46;99928.09;5073129;28;20209;-76
2023/12/22 09:22:22;;;;;;;27.43;5.33;;;;;;;7.46;86.72;99925.88;5073238;28;20179;-76
2023/12/22 09:24:48;;;;;;;10.10;3.40;;;;;;;7.40;85.80;99927.31;5073200;28;20187;-76
2023/12/22 09:27:15;;;;;;;14.00;3.40;;;;;;;7.32;86.59;99932.53;5073126;28;20249;-76
2023/12/22 09:29:42;;;;;;;21.30;4.40;;;;;;;7.25;87.35;99913.72;5073649;28;20206;-76
2023/12/22 09:32:08;;;;;;;12.57;3.67;;;;;;;7.25;87.63;99919.03;5073425;28;20561;-75
2023/12/22 09:34:35;;;;;;;13.43;3.50;;;;;;;7.18;88.51;99922.41;5073631;28;20535;-75
2023/12/22 09:37:01;;;;;;;6.83;2.97;;;;;;;7.05;88.89;99919.28;5073598;28;20631;-75
2023/12/22 09:39:28;;;;;;;18.33;3.23;;;;;;;6.97;89.04;99930.66;5073456;28;20271;-76
2023/12/22 09:41:55;;;;;;;14.03;3.03;;;;;;;6.88;90.08;99944.81;5073058;28;20259;-76
2023/12/22 09:44:21;;;;;;;5.93;2.93;;;;;;;6.74;90.70;99930.22;5073046;28;20623;-76
2023/12/22 09:46:52;;;;;;;10.60;3.10;;;;;;;6.65;91.90;99931.09;5072902;28;20236;-76
2023/12/22 09:49:20;;;;;;;7.67;2.80;;;;;;;6.53;92.54;99937.56;5073071;28;20206;-77
2023/12/22 09:51:47;;;;;;;13.83;3.47;;;;;;;6.48;93.37;99933.66;5073438;28;20274;-77
2023/12/22 09:54:14;;;;;;;9.53;2.97;;;;;;;6.45;93.74;99945.41;5073133;28;20603;-77
2023/12/22 09:56:42;;;;;;;9.87;2.90;;;;;;;6.42;94.16;99913.84;5072932;28;20190;-77
2023/12/22 09:59:13;;;;;;;9.90;2.93;;;;;;;6.39;94.36;99914.97;5073101;28;20325;-76
2023/12/22 10:01:47;;;;;;;2.20;2.00;;;;;;;6.43;94.34;99910.22;5073102;28;20190;-76
2023/12/22 10:04:14;;;;;;;7.77;3.20;;;;;;;6.41;95.13;99909.50;5073418;28;20224;-76
2023/12/22 10:06:41;;;;;;;4.33;2.77;;;;;;;6.44;95.13;99911.88;5073334;28;20735;-76
2023/12/22 10:09:11;;;;;;;9.17;3.43;;;;;;;6.39;95.92;99914.13;5072746;28;20218;-76
2023/12/22 10:11:39;;;;;;;17.20;4.40;;;;;;;6.46;95.36;99907.25;5072739;28;20187;-77
2023/12/22 10:14:06;;;;;;;15.53;3.10;;;;;;;6.49;95.50;99900.84;5072792;28;20531;-76
2023/12/22 10:16:33;;;;;;;9.03;3.53;;;;;;;6.51;95.76;99906.81;5072962;28;20548;-77
2023/12/22 10:19:00;;;;;;;6.83;3.53;;;;;;;6.59;95.57;99898.97;5072492;28;20763;-77
2023/12/22 10:21:26;;;;;;;18.77;4.20;;;;;;;6.59;95.82;99893.66;5072679;28;20198;-77
2023/12/22 10:23:53;;;;;;;5.30;4.00;;;;;;;6.59;95.38;99905.09;5073169;28;20182;-77
2023/12/22 10:26:19;;;;;;;13.47;4.00;;;;;;;6.67;95.77;99899.06;5076364;28;20197;-77
2023/12/22 10:28:49;;;;;;;12.97;3.80;;;;;;;6.70;95.75;99886.34;5076808;28;20195;-75
2023/12/22 10:31:17;;;;;;;9.27;4.27;;;;;;;6.72;96.09;99887.00;5076391;28;20281;-77
2023/12/22 10:33:48;;;;;;;10.00;4.87;;;;;;;6.77;96.17;99879.44;5076376;28;20208;-76
2023/12/22 10:36:14;;;;;;;8.70;3.53;;;;;;;6.82;96.25;99879.00;5076548;28;20177;-76
2023/12/22 10:38:42;;;;;;;13.73;3.50;;;;;;;6.89;95.86;99885.38;5076155;28;20187;-75
2023/12/22 10:41:09;;;;;;;15.97;3.33;;;;;;;6.89;96.53;99886.22;5076159;28;20229;-76
2023/12/22 10:43:40;;;;;;;14.63;3.93;;;;;;;6.92;96.54;99884.28;5076600;28;20612;-76
2023/12/22 10:46:08;;;;;;;11.83;3.70;;;;;;;6.96;96.81;99883.00;5076551;28;20189;-76
2023/12/22 10:48:35;;;;;;;14.10;4.13;;;;;;;7.01;97.15;99870.06;5075865;28;20206;-76
2023/12/22 10:51:01;;;;;;;9.33;4.00;;;;;;;7.11;97.08;99870.84;5075948;28;20264;-76
2023/12/22 10:53:28;;;;;;;4.73;3.60;;;;;;;7.11;96.55;99877.00;5076030;28;20194;-77
2023/12/22 10:55:56;;;;;;;9.07;3.03;;;;;;;7.26;94.26;99861.34;5075880;28;20662;-77
2023/12/22 10:58:22;;;;;;;5.03;3.17;;;;;;;7.23;94.63;99867.81;5075872;28;20642;-77
2023/12/22 11:00:51;;;;;;;4.73;2.93;;;;;;;7.27;93.94;99873.66;5076003;28;20230;-76
2023/12/22 11:03:23;;;;;;;6.07;2.87;;;;;;;7.28;93.47;99856.72;5075689;28;20747;-76
2023/12/22 11:05:51;;;;;;;4.73;2.80;;;;;;;7.27;94.14;99863.03;5076084;28;20228;-77
2023/12/22 11:08:19;;;;;;;3.63;2.57;;;;;;;7.26;93.83;99861.34;5075619;28;20803;-77
2023/12/22 11:10:53;;;;;;;3.73;2.20;;;;;;;7.25;93.86;99876.50;5075835;28;20207;-76
2023/12/22 11:13:20;;;;;;;6.30;1.70;;;;;;;7.24;93.97;99863.34;5075613;28;20266;-76
2023/12/22 11:15:47;;;;;;;4.57;1.63;;;;;;;7.27;93.70;99865.69;5075831;28;20232;-76
2023/12/22 11:18:15;;;;;;;1.83;1.83;;;;;;;7.27;93.44;99863.03;5075636;28;20199;-77
2023/12/22 11:20:42;;;;;;;2.83;1.77;;;;;;;7.25;93.72;99873.00;5075500;28;20762;-78
2023/12/22 11:23:10;;;;;;;2.73;2.17;;;;;;;7.17;94.46;99857.78;5076099;28;20183;-79
2023/12/22 11:25:37;;;;;;;8.80;1.50;;;;;;;7.17;94.74;99859.63;5075616;28;20198;-77
2023/12/22 11:28:06;;;;;;;10.53;1.63;;;;;;;7.15;95.19;99861.59;5075763;28;20700;-77
2023/12/22 11:30:34;;;;;;;1.73;1.60;;;;;;;7.12;95.73;99860.06;5075207;28;20755;-77
2023/12/22 11:33:01;;;;;;;2.57;2.20;;;;;;;7.11;96.25;99853.09;5075495;28;20183;-77
2023/12/22 11:35:29;;;;;;;2.50;1.57;;;;;;;7.12;95.75;99852.09;5074643;28;20195;-77
2023/12/22 11:38:00;;;;;;;3.47;1.87;;;;;;;7.12;96.05;99865.41;5075381;28;20264;-76
2023/12/22 11:40:27;;;;;;;2.03;1.90;;;;;;;7.15;96.01;99867.75;5075015;28;20213;-76